AR95 weather

Arkansas Methodist Hospital Heliport
Paragould, Arkansas, United States

Public forecast

Using degrees Fahrenheit for public forecast. Weather courtesy of forecast.io.

Closest aviation weather report (METAR) to Arkansas Methodist Hospital Heliport

Report is more than 6 hours old.

Closest report is Jonesboro Municipal Airport, 15.0 nm (27.8 km) SSW. Retrieved 2020/03/28 23:53 UTC (2 months ago):

KJBR 282353Z AUTO RMK AO2 LTG DSNT E-S RAEMM SLPNO P0005 60018 10239 20217 PWINO FZRANO

Closest aviation forecast (TAF) to Arkansas Methodist Hospital Heliport

Closest forecast is Jonesboro Municipal Airport, 15.0 nm (27.8 km) SSW. Retrieved 2020-06-01 00:30 UTC (1 hour ago):

TAF KJBR 312328Z 0100/0124 07008KT P6SM SKC FM010100 05003KT P6SM SKC FM011500 09007KT P6SM SKC AMD NOT SKED